Etusivu
METAR-TAF:

METAR-TAF

Lentoasemat :

Sandnessjøen, Norja

Leveyspiiri: 65-58N, Pituuspiiri: 012-28E, korkeus merenpinnasta: 1 m

Tämänhetkinen sää

Tämä raportti tehtiin 22 minuuttia sitten, kello 05.50 UTC
Tuuli 7 kn eri suunnista
Lämpötila 0°C
Kosteus 55%
Ilmanpaine 1017 hPa
Näkyvyys 10 km tai enemmän
ei pilviä alle 1500 m:ssä eikä cumulonimbus-pilviä

METAR: ENST 190550Z VRB07KT CAVOK 00/M08 Q1017 RMK WIND 300FT 12028G43KT TURB WRNG - SEE IPPC

Aika: 07:12 (06:12 UTC)


TAF: puuttuu

Säähavainnot ja -ennusteet yli 4000 lentoasemalta (METAR- ja TAF-raportit).

Käytössä olevat sääasemat on merkitty karttaan keltaisilla ja punaisilla pisteillä.

Aseta hiiri pisteen päälle nähdäksesi sääaseman nimen.

Klikkaa sitten nähdäksesi säähavainnot ja -ennusteet.

Kartan vaihtaminen: klikkaa mustalla rastilla varustettuja vihreitä pisteitä, niin voit zoomata sisään; viivalla varustettua vihreää pistettä, niin voit zoomata ulos tai vihreitä nuolia, niin pääset viereisille kartoille.


METAR-TAF: